Fishtail, Montana
Current Conditions -  °F | °C
As of 1:53 AM on Wednesday 26 Nov 2014 (Local Time) from KLVM Reporting Station
Light Snow Light Snow  
Wind Chill: 18°   Ceiling: 1900
Heat Index: 26°   Visibility: 1.2mi
Dew Point: 24°   Wind: 7mph
Humidity: 92%   Direction: 80°E
Pressure: 30.12"   Gusts: NA
Location:  45.45°N, 109.51°W
Report Text: KLVM 260853Z AUTO 08006KT 1 1/4SM -SN BR OVC019 M03/M04 A3012 RMK AO2 SLP233 P0001 60007 T10331044 58003
Loading
Personal Weather Stations






























Interactive Weather Map New forecast layout! Learn more

10-Day Weather Forecast

Advertisements
Track Severe Weather on mobile